createdAt,value
2023-01-29T00:00:13.118Z,2.03
2023-01-29T00:03:00.923Z,2.06
2023-01-29T00:05:28.773Z,1.93
2023-01-29T00:07:57.329Z,1.98
2023-01-29T00:10:25.684Z,2.00
2023-01-29T00:12:54.044Z,2.04
2023-01-29T00:15:22.040Z,2.05
2023-01-29T00:17:50.597Z,2.03
2023-01-29T00:20:18.674Z,2.03
2023-01-29T00:22:47.703Z,2.08
2023-01-29T00:25:16.413Z,2.16
2023-01-29T00:27:44.802Z,2.11
2023-01-29T00:30:14.527Z,2.12
2023-01-29T00:32:43.045Z,2.21
2023-01-29T00:35:10.755Z,2.21
2023-01-29T00:37:38.997Z,2.19
2023-01-29T00:40:08.093Z,2.19
2023-01-29T00:42:54.850Z,2.21
2023-01-29T00:45:22.350Z,2.15
2023-01-29T00:47:50.623Z,2.14
2023-01-29T00:50:18.855Z,2.11
2023-01-29T00:52:48.725Z,2.13
2023-01-29T00:55:16.569Z,2.03
2023-01-29T00:57:45.166Z,2.11
2023-01-29T01:00:17.427Z,2.14
2023-01-29T01:03:04.615Z,2.19
2023-01-29T01:05:32.744Z,2.20
2023-01-29T01:08:00.694Z,2.23
2023-01-29T01:10:32.523Z,2.27
2023-01-29T01:13:07.044Z,2.18
2023-01-29T01:15:41.422Z,2.19
2023-01-29T01:18:09.474Z,2.16
2023-01-29T01:20:37.439Z,2.20
2023-01-29T01:23:05.643Z,2.21
2023-01-29T01:25:33.275Z,2.17
2023-01-29T01:28:01.848Z,2.16
2023-01-29T01:30:29.514Z,2.24
2023-01-29T01:32:57.766Z,2.30
2023-01-29T01:35:25.457Z,2.37
2023-01-29T01:37:53.303Z,2.47
2023-01-29T01:40:23.934Z,2.45
2023-01-29T01:42:58.918Z,2.43
2023-01-29T01:45:37.340Z,2.39
2023-01-29T01:48:27.283Z,2.31
2023-01-29T01:51:03.471Z,2.26
2023-01-29T01:54:07.462Z,2.28
2023-01-29T01:56:42.856Z,2.30
2023-01-29T01:59:16.678Z,2.30
2023-01-29T02:01:51.299Z,2.30
2023-01-29T02:04:42.325Z,2.26
2023-01-29T02:07:32.875Z,2.17
2023-01-29T02:10:04.470Z,2.05
2023-01-29T02:12:33.098Z,1.99
2023-01-29T02:15:02.151Z,2.05
2023-01-29T02:17:29.839Z,2.04
2023-01-29T02:20:06.405Z,2.08
2023-01-29T02:22:59.373Z,2.02
2023-01-29T02:25:51.237Z,2.06
2023-01-29T02:28:49.164Z,1.92
2023-01-29T02:31:47.098Z,1.94
2023-01-29T02:35:06.958Z,1.90
2023-01-29T02:37:50.356Z,2.02
2023-01-29T02:40:27.380Z,1.95
2023-01-29T02:43:47.811Z,1.85
2023-01-29T02:46:35.859Z,1.93
2023-01-29T02:49:24.457Z,1.95
2023-01-29T02:52:25.840Z,1.93
2023-01-29T02:55:10.573Z,2.00
2023-01-29T02:57:44.821Z,2.09
2023-01-29T03:00:25.772Z,2.11
2023-01-29T03:03:10.503Z,2.11
2023-01-29T03:06:28.368Z,2.09
2023-01-29T03:09:01.667Z,2.08
2023-01-29T03:11:39.787Z,2.15
2023-01-29T03:14:23.352Z,2.04
2023-01-29T03:16:54.354Z,2.05
2023-01-29T03:19:32.068Z,2.06
2023-01-29T03:22:06.302Z,2.07
2023-01-29T03:25:09.424Z,2.13
2023-01-29T03:28:06.492Z,2.15
2023-01-29T03:31:07.670Z,2.19
2023-01-29T03:34:16.438Z,2.15
2023-01-29T03:37:02.036Z,2.26
2023-01-29T03:39:30.730Z,2.22
2023-01-29T03:42:31.644Z,2.31
2023-01-29T03:45:27.532Z,2.32
2023-01-29T03:48:24.814Z,2.27
2023-01-29T03:51:22.536Z,2.31
2023-01-29T03:54:04.719Z,2.40
2023-01-29T03:57:15.571Z,2.41
2023-01-29T04:00:21.440Z,2.38
2023-01-29T04:03:23.274Z,2.39
2023-01-29T04:06:11.618Z,2.40
2023-01-29T04:08:56.598Z,2.34
2023-01-29T04:11:27.598Z,2.24
2023-01-29T04:13:57.627Z,2.26
2023-01-29T04:16:36.389Z,2.31
2023-01-29T04:19:17.152Z,2.36
2023-01-29T04:21:47.520Z,2.32
2023-01-29T04:24:16.344Z,2.33
2023-01-29T04:26:56.673Z,2.43
2023-01-29T04:30:09.265Z,2.40
2023-01-29T04:33:03.353Z,2.31
2023-01-29T04:35:54.767Z,2.32
2023-01-29T04:38:47.643Z,2.29
2023-01-29T04:41:58.535Z,2.28
2023-01-29T04:45:16.797Z,2.21
2023-01-29T04:48:08.483Z,2.10
2023-01-29T04:51:05.740Z,2.08
2023-01-29T04:54:14.921Z,2.03
2023-01-29T04:56:57.064Z,2.00
2023-01-29T04:59:41.632Z,2.02
2023-01-29T05:02:12.001Z,2.01
2023-01-29T05:04:44.678Z,1.89
2023-01-29T05:07:15.455Z,2.03
2023-01-29T05:09:45.713Z,2.03
2023-01-29T05:12:16.105Z,2.13
2023-01-29T05:14:47.090Z,2.27
2023-01-29T05:17:19.223Z,2.26
2023-01-29T05:19:47.678Z,2.37
2023-01-29T05:22:18.514Z,2.43
2023-01-29T05:24:46.713Z,2.40
2023-01-29T05:27:41.539Z,2.31
2023-01-29T05:30:10.535Z,2.32
2023-01-29T05:32:39.813Z,2.34
2023-01-29T05:35:08.078Z,2.30
2023-01-29T05:37:35.679Z,2.27
2023-01-29T05:40:03.921Z,2.27
2023-01-29T05:42:32.643Z,2.33
2023-01-29T05:45:00.422Z,2.37
2023-01-29T05:47:27.935Z,2.46
2023-01-29T05:49:55.798Z,2.55
2023-01-29T05:52:23.385Z,2.63
2023-01-29T05:54:51.218Z,2.67
2023-01-29T05:57:18.773Z,2.73
2023-01-29T05:59:46.602Z,2.61
2023-01-29T06:02:14.075Z,2.58
2023-01-29T06:04:41.941Z,2.64
2023-01-29T06:07:09.763Z,2.73
2023-01-29T06:09:37.841Z,2.73
2023-01-29T06:12:06.472Z,2.62
2023-01-29T06:14:34.487Z,2.61
2023-01-29T06:17:02.208Z,2.57
2023-01-29T06:19:30.061Z,2.59
2023-01-29T06:21:57.620Z,2.64
2023-01-29T06:24:25.403Z,2.67
2023-01-29T06:26:52.978Z,2.73
2023-01-29T06:29:20.765Z,2.84
2023-01-29T06:31:48.523Z,2.78
2023-01-29T06:34:16.675Z,2.81
2023-01-29T06:36:44.192Z,2.83
2023-01-29T06:39:12.736Z,2.81
2023-01-29T06:41:40.318Z,2.70
2023-01-29T06:44:08.095Z,2.76
2023-01-29T06:46:35.976Z,2.76
2023-01-29T06:49:04.076Z,2.85
2023-01-29T06:51:31.693Z,2.64
2023-01-29T06:53:59.591Z,2.55
2023-01-29T06:56:27.073Z,2.58
2023-01-29T06:58:54.938Z,2.58
2023-01-29T07:01:35.273Z,2.58
2023-01-29T07:04:04.753Z,2.66
2023-01-29T07:06:32.671Z,2.73
2023-01-29T07:09:00.859Z,2.80
2023-01-29T07:11:28.319Z,2.74
2023-01-29T07:13:56.152Z,2.69
2023-01-29T07:16:25.008Z,2.74
2023-01-29T07:18:53.032Z,2.81
2023-01-29T07:21:20.519Z,2.80
2023-01-29T07:23:48.347Z,2.86
2023-01-29T07:26:16.554Z,2.89
2023-01-29T07:28:44.398Z,2.85
2023-01-29T07:31:14.131Z,2.86
2023-01-29T07:33:45.130Z,2.91
2023-01-29T07:36:15.882Z,2.96
2023-01-29T07:38:43.760Z,2.94
2023-01-29T07:41:12.774Z,2.94
2023-01-29T07:43:40.600Z,2.71
2023-01-29T07:46:08.348Z,2.72
2023-01-29T07:48:36.227Z,2.75
2023-01-29T07:51:03.831Z,2.76
2023-01-29T07:53:31.876Z,2.66
2023-01-29T07:55:59.560Z,2.64
2023-01-29T07:58:27.391Z,2.69
2023-01-29T08:00:54.877Z,2.73
2023-01-29T08:03:22.788Z,2.80
2023-01-29T08:05:50.437Z,2.84
2023-01-29T08:08:19.415Z,2.91
2023-01-29T08:10:46.940Z,2.92
2023-01-29T08:13:15.728Z,2.87
2023-01-29T08:15:47.606Z,2.92
2023-01-29T08:18:16.736Z,2.98
2023-01-29T08:20:44.380Z,3.09
2023-01-29T08:23:16.828Z,3.16
2023-01-29T08:25:44.881Z,3.22
2023-01-29T08:28:13.170Z,3.23
2023-01-29T08:30:40.913Z,3.31
2023-01-29T08:33:08.854Z,3.32
2023-01-29T08:35:36.947Z,3.36
2023-01-29T08:38:05.862Z,3.43
2023-01-29T08:40:35.589Z,3.42
2023-01-29T08:43:08.673Z,3.47
2023-01-29T08:45:41.515Z,3.46
2023-01-29T08:48:10.412Z,3.47
2023-01-29T08:50:38.262Z,3.44
2023-01-29T08:53:08.239Z,3.40
2023-01-29T08:55:38.614Z,3.43
2023-01-29T08:58:10.278Z,3.47
2023-01-29T09:00:38.954Z,3.41
2023-01-29T09:03:07.979Z,3.20
2023-01-29T09:05:40.040Z,3.10
2023-01-29T09:08:09.704Z,3.03
2023-01-29T09:10:37.576Z,3.07
2023-01-29T09:13:05.555Z,2.93
2023-01-29T09:15:33.408Z,2.90
2023-01-29T09:18:05.418Z,2.96
2023-01-29T09:20:33.912Z,2.91
2023-01-29T09:23:09.216Z,2.99
2023-01-29T09:25:38.554Z,3.13
2023-01-29T09:28:06.453Z,3.10
2023-01-29T09:30:37.529Z,3.09
2023-01-29T09:33:06.123Z,3.16
2023-01-29T09:35:34.833Z,3.15
2023-01-29T09:38:02.382Z,3.20
2023-01-29T09:41:02.949Z,3.29
2023-01-29T09:43:51.378Z,3.30
2023-01-29T09:46:46.684Z,3.35
2023-01-29T09:49:39.291Z,3.43
2023-01-29T09:52:36.304Z,3.40
2023-01-29T09:55:27.514Z,3.30
2023-01-29T09:58:07.687Z,3.32
2023-01-29T10:00:51.137Z,3.37
2023-01-29T10:04:06.858Z,3.28
2023-01-29T10:06:59.348Z,3.25
2023-01-29T10:09:48.122Z,3.26
2023-01-29T10:12:37.140Z,3.36
2023-01-29T10:15:14.201Z,3.36
2023-01-29T10:18:18.621Z,3.38
2023-01-29T10:21:17.154Z,3.41
2023-01-29T10:23:59.230Z,3.41
2023-01-29T10:26:29.406Z,3.40
2023-01-29T10:29:01.028Z,3.43
2023-01-29T10:31:38.980Z,3.39
2023-01-29T10:34:24.211Z,3.21
2023-01-29T10:36:53.983Z,3.16
2023-01-29T10:39:25.512Z,3.18
2023-01-29T10:42:33.359Z,3.20
2023-01-29T10:45:29.055Z,3.19
2023-01-29T10:49:00.260Z,3.30
2023-01-29T10:52:11.333Z,3.49
2023-01-29T10:55:13.084Z,3.64
2023-01-29T10:58:32.982Z,3.72
2023-01-29T11:01:01.374Z,3.74
2023-01-29T11:03:33.438Z,3.79
2023-01-29T11:06:25.434Z,3.80
2023-01-29T11:09:10.950Z,3.81
2023-01-29T11:11:45.282Z,3.88
2023-01-29T11:14:21.905Z,3.97
2023-01-29T11:16:50.507Z,3.97
2023-01-29T11:19:18.761Z,3.96
2023-01-29T11:22:01.837Z,3.89
2023-01-29T11:24:29.390Z,3.90
2023-01-29T11:27:00.626Z,3.93
2023-01-29T11:29:43.036Z,3.96
2023-01-29T11:32:22.878Z,3.87
2023-01-29T11:35:19.627Z,3.90
2023-01-29T11:37:47.955Z,3.85
2023-01-29T11:40:39.312Z,3.59
2023-01-29T11:43:33.043Z,3.52
2023-01-29T11:46:11.753Z,3.54
2023-01-29T11:48:58.978Z,3.73
2023-01-29T11:51:30.023Z,4.02
2023-01-29T11:54:04.781Z,4.40
2023-01-29T11:56:51.873Z,4.75
2023-01-29T11:59:48.965Z,4.75
2023-01-29T12:02:31.651Z,4.50
2023-01-29T12:05:17.878Z,4.36
2023-01-29T12:07:49.825Z,4.27
2023-01-29T12:10:41.791Z,4.18
2023-01-29T12:13:15.912Z,4.02
2023-01-29T12:15:43.845Z,3.90
2023-01-29T12:18:27.311Z,3.85
2023-01-29T12:21:13.157Z,3.80
2023-01-29T12:24:26.660Z,3.84
2023-01-29T12:27:27.156Z,3.91
2023-01-29T12:30:42.147Z,3.90
2023-01-29T12:33:33.612Z,3.90
2023-01-29T12:36:28.349Z,3.94
2023-01-29T12:38:59.069Z,4.01
2023-01-29T12:41:46.677Z,3.95
2023-01-29T12:44:26.224Z,3.80
2023-01-29T12:46:59.637Z,3.61
2023-01-29T12:49:33.160Z,3.43
2023-01-29T12:52:29.276Z,3.48
2023-01-29T12:55:03.745Z,3.37
2023-01-29T12:57:43.047Z,3.43
2023-01-29T13:00:22.597Z,3.44
2023-01-29T13:03:00.753Z,3.50
2023-01-29T13:05:56.578Z,3.40
2023-01-29T13:08:45.752Z,3.34
2023-01-29T13:11:19.179Z,3.40
2023-01-29T13:14:02.099Z,3.37
2023-01-29T13:16:45.753Z,3.42
2023-01-29T13:19:40.205Z,3.57
2023-01-29T13:22:25.586Z,3.67
2023-01-29T13:25:04.173Z,3.71
2023-01-29T13:27:35.801Z,3.73
2023-01-29T13:30:03.854Z,3.79
2023-01-29T13:32:35.272Z,3.81
2023-01-29T13:35:14.231Z,3.86
2023-01-29T13:37:53.851Z,3.94
2023-01-29T13:40:29.035Z,3.98
2023-01-29T13:43:00.218Z,4.03
2023-01-29T13:45:43.398Z,3.98
2023-01-29T13:48:37.069Z,4.04
2023-01-29T13:51:20.318Z,4.05
2023-01-29T13:54:07.956Z,4.05
2023-01-29T13:56:35.537Z,3.95
2023-01-29T13:59:20.909Z,3.99
2023-01-29T14:01:48.375Z,4.01
2023-01-29T14:04:31.093Z,4.01
2023-01-29T14:07:00.900Z,4.00
2023-01-29T14:09:32.379Z,4.00
2023-01-29T14:12:00.162Z,3.97
2023-01-29T14:14:50.189Z,3.93
2023-01-29T14:17:20.617Z,3.93
2023-01-29T14:19:55.586Z,3.91
2023-01-29T14:22:30.689Z,3.90
2023-01-29T14:25:05.309Z,3.96
2023-01-29T14:27:34.710Z,3.90
2023-01-29T14:30:09.760Z,3.86
2023-01-29T14:32:41.324Z,3.88
2023-01-29T14:35:24.565Z,3.89
2023-01-29T14:37:56.649Z,3.92
2023-01-29T14:40:27.333Z,3.99
2023-01-29T14:42:59.079Z,4.02
2023-01-29T14:45:30.500Z,4.02
2023-01-29T14:48:03.205Z,3.91
2023-01-29T14:50:33.563Z,3.77
2023-01-29T14:53:05.653Z,3.75
2023-01-29T14:56:14.538Z,3.78
2023-01-29T14:58:54.828Z,3.74
2023-01-29T15:01:37.724Z,3.73
2023-01-29T15:04:13.052Z,3.70
2023-01-29T15:07:11.585Z,3.57
2023-01-29T15:10:20.937Z,3.49
2023-01-29T15:13:03.414Z,3.51
2023-01-29T15:15:52.072Z,3.55
2023-01-29T15:18:42.421Z,3.64
2023-01-29T15:21:19.124Z,3.61
2023-01-29T15:23:49.036Z,3.62
2023-01-29T15:26:26.862Z,3.63
2023-01-29T15:29:04.907Z,3.66
2023-01-29T15:31:33.194Z,3.70
2023-01-29T15:34:07.596Z,3.75
2023-01-29T15:36:37.428Z,3.74
2023-01-29T15:39:16.940Z,3.80
2023-01-29T15:41:45.844Z,3.78
2023-01-29T15:44:20.912Z,3.74
2023-01-29T15:46:56.609Z,3.85
2023-01-29T15:49:34.812Z,3.78
2023-01-29T15:52:09.583Z,3.71
2023-01-29T15:54:37.437Z,3.69
2023-01-29T15:57:07.169Z,3.65
2023-01-29T15:59:43.649Z,3.59
2023-01-29T16:02:36.381Z,3.62
2023-01-29T16:05:20.558Z,3.62
2023-01-29T16:07:50.615Z,3.67
2023-01-29T16:10:22.085Z,3.67
2023-01-29T16:12:51.711Z,3.72
2023-01-29T16:15:32.815Z,3.68
2023-01-29T16:18:04.208Z,3.66
2023-01-29T16:20:43.717Z,3.71
2023-01-29T16:23:20.462Z,3.71
2023-01-29T16:25:49.911Z,3.68
2023-01-29T16:28:18.602Z,3.68
2023-01-29T16:30:46.787Z,3.70
2023-01-29T16:33:17.542Z,3.69
2023-01-29T16:35:52.152Z,3.68
2023-01-29T16:38:32.709Z,3.63
2023-01-29T16:41:08.935Z,3.61
2023-01-29T16:43:42.417Z,3.61
2023-01-29T16:46:44.967Z,3.74
2023-01-29T16:49:31.094Z,3.61
2023-01-29T16:52:34.036Z,3.61
2023-01-29T16:55:11.922Z,3.60
2023-01-29T16:57:41.062Z,3.63
2023-01-29T17:00:24.541Z,3.62
2023-01-29T17:03:05.415Z,3.57
2023-01-29T17:05:37.111Z,3.58
2023-01-29T17:08:06.246Z,3.63
2023-01-29T17:10:36.015Z,3.66
2023-01-29T17:13:10.207Z,3.68
2023-01-29T17:16:04.740Z,3.71
2023-01-29T17:18:32.750Z,3.69
2023-01-29T17:21:00.280Z,3.63
2023-01-29T17:23:28.507Z,3.60
2023-01-29T17:25:56.043Z,3.62
2023-01-29T17:28:24.042Z,3.66
2023-01-29T17:31:05.160Z,3.68
2023-01-29T17:33:42.880Z,3.67
2023-01-29T17:36:16.448Z,3.57
2023-01-29T17:38:45.837Z,3.59
2023-01-29T17:41:29.860Z,3.71
2023-01-29T17:43:57.699Z,3.62
2023-01-29T17:46:25.371Z,3.68
2023-01-29T17:48:53.444Z,3.59
2023-01-29T17:51:21.894Z,3.59
2023-01-29T17:53:51.401Z,3.62
2023-01-29T17:56:28.093Z,3.67
2023-01-29T17:58:56.103Z,3.73
2023-01-29T18:01:23.934Z,3.69
2023-01-29T18:03:51.949Z,3.69
2023-01-29T18:06:30.040Z,3.79
2023-01-29T18:08:58.576Z,3.62
2023-01-29T18:11:26.566Z,3.58
2023-01-29T18:13:56.040Z,3.56
2023-01-29T18:16:25.313Z,3.60
2023-01-29T18:18:53.283Z,3.63
2023-01-29T18:21:21.047Z,3.54
2023-01-29T18:23:49.040Z,3.53
2023-01-29T18:26:17.944Z,3.55
2023-01-29T18:28:45.957Z,3.58
2023-01-29T18:31:15.034Z,3.46
2023-01-29T18:33:43.054Z,3.40
2023-01-29T18:36:10.887Z,3.44
2023-01-29T18:38:39.703Z,3.46
2023-01-29T18:41:12.619Z,3.52
2023-01-29T18:43:42.304Z,3.56
2023-01-29T18:46:10.634Z,3.57
2023-01-29T18:48:40.929Z,3.62
2023-01-29T18:51:09.551Z,3.47
2023-01-29T18:53:37.560Z,3.38
2023-01-29T18:56:07.006Z,3.37
2023-01-29T18:58:37.264Z,3.42
2023-01-29T19:01:09.837Z,3.44
2023-01-29T19:03:42.414Z,3.44
2023-01-29T19:06:12.122Z,3.41
2023-01-29T19:08:41.096Z,3.38
2023-01-29T19:11:09.146Z,3.43
2023-01-29T19:13:39.303Z,3.34
2023-01-29T19:16:12.797Z,3.30
2023-01-29T19:18:40.920Z,3.33
2023-01-29T19:21:17.076Z,3.39
2023-01-29T19:23:45.220Z,3.44
2023-01-29T19:26:13.714Z,3.50
2023-01-29T19:28:42.336Z,3.50
2023-01-29T19:31:10.243Z,3.51
2023-01-29T19:33:39.193Z,3.52
2023-01-29T19:36:07.577Z,3.40
2023-01-29T19:38:38.607Z,3.39
2023-01-29T19:41:06.904Z,3.37
2023-01-29T19:43:35.061Z,3.45
2023-01-29T19:46:02.772Z,3.45
2023-01-29T19:53:16.107Z,3.07
2023-01-29T19:55:44.116Z,3.07
2023-01-29T19:58:11.792Z,3.00
2023-01-29T20:00:43.062Z,3.00
2023-01-29T20:03:10.685Z,2.92
2023-01-29T20:05:38.817Z,2.94
2023-01-29T20:08:06.573Z,3.04
2023-01-29T20:10:34.640Z,3.10
2023-01-29T20:13:02.193Z,3.17
2023-01-29T20:15:33.030Z,3.21
2023-01-29T20:18:44.239Z,3.25
2023-01-29T20:24:22.000Z,3.15
2023-01-29T20:26:51.639Z,3.20
2023-01-29T20:29:19.471Z,3.20
2023-01-29T20:31:47.760Z,3.23
2023-01-29T20:34:16.546Z,3.11
2023-01-29T20:36:44.556Z,3.10
2023-01-29T20:39:12.361Z,3.10
2023-01-29T20:41:41.939Z,3.16
2023-01-29T20:44:20.075Z,3.19
2023-01-29T20:47:27.920Z,3.14
2023-01-29T20:50:27.106Z,3.14
2023-01-29T20:59:51.172Z,2.91
2023-01-29T21:02:19.717Z,2.92
2023-01-29T21:04:47.681Z,2.97
2023-01-29T21:07:15.449Z,2.99
2023-01-29T21:09:49.813Z,2.99
2023-01-29T21:12:17.637Z,3.01
2023-01-29T21:19:51.416Z,3.04
2023-01-29T21:22:42.523Z,2.91
2023-01-29T21:25:12.057Z,2.91
2023-01-29T21:27:39.493Z,2.92
2023-01-29T21:30:08.435Z,2.87
2023-01-29T21:32:36.097Z,2.86
2023-01-29T21:35:04.876Z,2.83
2023-01-29T21:37:36.905Z,2.76
2023-01-29T21:40:07.433Z,2.74
2023-01-29T21:42:53.417Z,2.77
2023-01-29T21:45:21.422Z,2.67
2023-01-29T21:47:49.051Z,2.66
2023-01-29T21:50:17.666Z,2.59
2023-01-29T21:52:45.278Z,2.66
2023-01-29T21:55:13.085Z,2.62
2023-01-29T21:57:40.748Z,2.65
2023-01-29T22:00:11.282Z,2.64
2023-01-29T22:02:39.224Z,2.68
2023-01-29T22:05:18.772Z,2.73
2023-01-29T22:07:49.236Z,2.76
2023-01-29T22:10:19.216Z,2.82
2023-01-29T22:12:48.109Z,2.85
2023-01-29T22:15:16.381Z,2.83
2023-01-29T22:17:43.953Z,2.80
2023-01-29T22:20:14.269Z,2.81
2023-01-29T22:22:42.409Z,2.83
2023-01-29T22:25:10.778Z,2.85
2023-01-29T22:27:38.316Z,2.83
2023-01-29T22:30:07.288Z,2.85
2023-01-29T22:32:34.773Z,2.84
2023-01-29T22:35:02.607Z,2.84
2023-01-29T22:37:30.393Z,2.83
2023-01-29T22:39:58.255Z,2.83
2023-01-29T22:42:26.207Z,2.84
2023-01-29T22:44:54.399Z,2.85
2023-01-29T22:47:23.221Z,2.86
2023-01-29T22:49:53.743Z,2.86
2023-01-29T22:52:24.452Z,2.86
2023-01-29T22:54:53.714Z,2.87
2023-01-29T22:57:21.356Z,2.87
2023-01-29T22:59:49.405Z,2.91
2023-01-29T23:02:16.949Z,2.92
2023-01-29T23:04:44.869Z,2.91
2023-01-29T23:07:12.471Z,2.93
2023-01-29T23:09:40.568Z,2.87
2023-01-29T23:12:08.329Z,2.83
2023-01-29T23:14:37.965Z,2.80
2023-01-29T23:17:05.901Z,2.75
2023-01-29T23:19:34.795Z,2.67
2023-01-29T23:22:02.531Z,2.67
2023-01-29T23:24:30.638Z,2.66
2023-01-29T23:27:16.835Z,2.64
2023-01-29T23:29:47.773Z,2.65
2023-01-29T23:32:19.647Z,2.63
2023-01-29T23:34:47.712Z,2.69
2023-01-29T23:37:15.434Z,2.72
2023-01-29T23:39:43.401Z,2.74
2023-01-29T23:42:11.080Z,2.75
2023-01-29T23:44:40.340Z,2.77
2023-01-29T23:47:09.633Z,2.74
2023-01-29T23:49:37.867Z,2.65
2023-01-29T23:52:06.442Z,2.67
2023-01-29T23:54:34.321Z,2.69
2023-01-29T23:57:02.104Z,2.70
2023-01-29T23:59:30.579Z,2.68
